sensor_id;sensor_type;location;lat;lon;timestamp;pressure;altitude;pressure_sealevel;temperature;humidity
72438;BME280;60444;43.534;-5.674;2023-04-26T00:01:35;101702.69;;;17.37;100.00
72438;BME280;60444;43.534;-5.674;2023-04-26T00:04:01;101727.38;;;17.51;100.00
72438;BME280;60444;43.534;-5.674;2023-04-26T00:06:27;101714.97;;;17.44;100.00
72438;BME280;60444;43.534;-5.674;2023-04-26T00:08:53;101705.25;;;17.40;100.00
72438;BME280;60444;43.534;-5.674;2023-04-26T00:11:18;101694.41;;;17.38;100.00
72438;BME280;60444;43.534;-5.674;2023-04-26T00:13:44;101723.75;;;17.50;100.00
72438;BME280;60444;43.534;-5.674;2023-04-26T00:16:10;101715.09;;;17.42;100.00
72438;BME280;60444;43.534;-5.674;2023-04-26T00:18:35;101714.97;;;17.44;100.00
72438;BME280;60444;43.534;-5.674;2023-04-26T00:21:01;101700.81;;;17.37;100.00
72438;BME280;60444;43.534;-5.674;2023-04-26T00:23:26;101714.13;;;17.43;100.00
72438;BME280;60444;43.534;-5.674;2023-04-26T00:25:52;101729.31;;;17.49;100.00
72438;BME280;60444;43.534;-5.674;2023-04-26T00:28:17;101724.69;;;17.49;100.00
72438;BME280;60444;43.534;-5.674;2023-04-26T00:30:43;101708.84;;;17.40;100.00
72438;BME280;60444;43.534;-5.674;2023-04-26T00:33:12;101717.81;;;17.42;100.00
72438;BME280;60444;43.534;-5.674;2023-04-26T00:35:37;101705.25;;;17.40;100.00
72438;BME280;60444;43.534;-5.674;2023-04-26T00:38:03;101728.31;;;17.50;100.00
72438;BME280;60444;43.534;-5.674;2023-04-26T00:40:29;101721.09;;;17.49;100.00
72438;BME280;60444;43.534;-5.674;2023-04-26T00:42:58;101723.84;;;17.49;100.00
72438;BME280;60444;43.534;-5.674;2023-04-26T00:45:24;101701.50;;;17.41;100.00
72438;BME280;60444;43.534;-5.674;2023-04-26T00:47:50;101691.94;;;17.34;100.00
72438;BME280;60444;43.534;-5.674;2023-04-26T00:50:16;101687.63;;;17.30;100.00
72438;BME280;60444;43.534;-5.674;2023-04-26T00:52:42;101714.97;;;17.44;100.00
72438;BME280;60444;43.534;-5.674;2023-04-26T00:55:09;101712.34;;;17.42;100.00
72438;BME280;60444;43.534;-5.674;2023-04-26T00:57:35;101708.84;;;17.40;100.00
72438;BME280;60444;43.534;-5.674;2023-04-26T01:00:01;101696.72;;;17.30;100.00
72438;BME280;60444;43.534;-5.674;2023-04-26T01:02:26;101705.34;;;17.38;100.00
72438;BME280;60444;43.534;-5.674;2023-04-26T01:04:52;101701.81;;;17.36;100.00
72438;BME280;60444;43.534;-5.674;2023-04-26T01:07:17;101700.13;;;17.34;100.00
72438;BME280;60444;43.534;-5.674;2023-04-26T01:09:43;101695.56;;;17.34;100.00
72438;BME280;60444;43.534;-5.674;2023-04-26T01:12:09;101694.66;;;17.34;100.00
72438;BME280;60444;43.534;-5.674;2023-04-26T01:14:35;101689.50;;;17.29;100.00
72438;BME280;60444;43.534;-5.674;2023-04-26T01:17:02;101670.75;;;17.23;100.00
72438;BME280;60444;43.534;-5.674;2023-04-26T01:19:27;101685.00;;;17.28;100.00
72438;BME280;60444;43.534;-5.674;2023-04-26T01:21:53;101682.25;;;17.28;100.00
72438;BME280;60444;43.534;-5.674;2023-04-26T01:24:19;101674.16;;;17.27;100.00
72438;BME280;60444;43.534;-5.674;2023-04-26T01:26:44;101678.63;;;17.28;100.00
72438;BME280;60444;43.534;-5.674;2023-04-26T01:29:19;101669.06;;;17.21;100.00
72438;BME280;60444;43.534;-5.674;2023-04-26T01:31:45;101668.09;;;17.22;100.00
72438;BME280;60444;43.534;-5.674;2023-04-26T01:34:12;101675.03;;;17.27;100.00
72438;BME280;60444;43.534;-5.674;2023-04-26T01:36:38;101661.66;;;17.23;100.00
72438;BME280;60444;43.534;-5.674;2023-04-26T01:39:04;101667.91;;;17.25;100.00
72438;BME280;60444;43.534;-5.674;2023-04-26T01:41:29;101656.38;;;17.20;100.00
72438;BME280;60444;43.534;-5.674;2023-04-26T01:43:55;101646.41;;;17.19;100.00
72438;BME280;60444;43.534;-5.674;2023-04-26T01:46:21;101659.81;;;17.23;100.00
72438;BME280;60444;43.534;-5.674;2023-04-26T01:48:46;101649.13;;;17.19;100.00
72438;BME280;60444;43.534;-5.674;2023-04-26T01:51:12;101658.91;;;17.23;100.00
72438;BME280;60444;43.534;-5.674;2023-04-26T01:53:38;101647.41;;;17.18;100.00
72438;BME280;60444;43.534;-5.674;2023-04-26T01:56:03;101648.66;;;17.12;100.00
72438;BME280;60444;43.534;-5.674;2023-04-26T01:58:30;101660.84;;;17.21;100.00
72438;BME280;60444;43.534;-5.674;2023-04-26T02:01:03;101663.00;;;17.16;100.00
72438;BME280;60444;43.534;-5.674;2023-04-26T02:03:29;101671.13;;;17.17;100.00
72438;BME280;60444;43.534;-5.674;2023-04-26T02:05:55;101645.34;;;17.07;100.00
72438;BME280;60444;43.534;-5.674;2023-04-26T02:08:21;101656.38;;;17.06;100.00
72438;BME280;60444;43.534;-5.674;2023-04-26T02:10:46;101669.63;;;17.12;100.00
72438;BME280;60444;43.534;-5.674;2023-04-26T02:13:12;101658.22;;;17.05;100.00
72438;BME280;60444;43.534;-5.674;2023-04-26T02:15:37;101664.56;;;17.06;100.00
72438;BME280;60444;43.534;-5.674;2023-04-26T02:18:02;101653.59;;;16.92;100.00
72438;BME280;60444;43.534;-5.674;2023-04-26T02:20:28;101663.25;;;16.97;100.00
72438;BME280;60444;43.534;-5.674;2023-04-26T02:22:53;101654.56;;;16.91;100.00
72438;BME280;60444;43.534;-5.674;2023-04-26T02:25:19;101657.41;;;16.89;100.00
72438;BME280;60444;43.534;-5.674;2023-04-26T02:27:45;101668.34;;;16.89;100.00
72438;BME280;60444;43.534;-5.674;2023-04-26T02:30:11;101669.41;;;16.87;100.00
72438;BME280;60444;43.534;-5.674;2023-04-26T02:32:37;101667.34;;;16.90;100.00
72438;BME280;60444;43.534;-5.674;2023-04-26T02:35:03;101670.28;;;16.87;100.00
72438;BME280;60444;43.534;-5.674;2023-04-26T02:37:29;101649.25;;;16.74;100.00
72438;BME280;60444;43.534;-5.674;2023-04-26T02:39:55;101667.81;;;16.83;100.00
72438;BME280;60444;43.534;-5.674;2023-04-26T02:42:20;101653.22;;;16.68;100.00
72438;BME280;60444;43.534;-5.674;2023-04-26T02:44:46;101648.66;;;16.69;100.00
72438;BME280;60444;43.534;-5.674;2023-04-26T02:47:11;101673.78;;;16.75;100.00
72438;BME280;60444;43.534;-5.674;2023-04-26T02:49:37;101645.44;;;16.62;100.00
72438;BME280;60444;43.534;-5.674;2023-04-26T02:52:03;101656.06;;;16.67;100.00
72438;BME280;60444;43.534;-5.674;2023-04-26T02:54:29;101651.69;;;16.64;100.00
72438;BME280;60444;43.534;-5.674;2023-04-26T02:56:54;101644.28;;;16.66;100.00
72438;BME280;60444;43.534;-5.674;2023-04-26T02:59:20;101658.44;;;16.73;100.00
72438;BME280;60444;43.534;-5.674;2023-04-26T03:01:45;101652.38;;;16.68;100.00
72438;BME280;60444;43.534;-5.674;2023-04-26T03:04:11;101637.34;;;16.61;100.00
72438;BME280;60444;43.534;-5.674;2023-04-26T03:06:36;101646.91;;;16.68;100.00
72438;BME280;60444;43.534;-5.674;2023-04-26T03:09:02;101651.97;;;16.74;100.00
72438;BME280;60444;43.534;-5.674;2023-04-26T03:11:29;101651.97;;;16.74;100.00
72438;BME280;60444;43.534;-5.674;2023-04-26T03:13:55;101651.22;;;16.72;100.00
72438;BME280;60444;43.534;-5.674;2023-04-26T03:16:22;101648.56;;;16.70;100.00
72438;BME280;60444;43.534;-5.674;2023-04-26T03:18:48;101622.28;;;16.53;100.00
72438;BME280;60444;43.534;-5.674;2023-04-26T03:21:13;101624.03;;;16.54;100.00
72438;BME280;60444;43.534;-5.674;2023-04-26T03:23:39;101640.75;;;16.64;100.00
72438;BME280;60444;43.534;-5.674;2023-04-26T03:26:04;101639.09;;;16.62;100.00
72438;BME280;60444;43.534;-5.674;2023-04-26T03:28:30;101640.13;;;16.59;100.00
72438;BME280;60444;43.534;-5.674;2023-04-26T03:30:55;101634.06;;;16.54;100.00
72438;BME280;60444;43.534;-5.674;2023-04-26T03:33:21;101625.38;;;16.47;100.00
72438;BME280;60444;43.534;-5.674;2023-04-26T03:35:47;101622.66;;;16.47;100.00
72438;BME280;60444;43.534;-5.674;2023-04-26T03:38:12;101638.84;;;16.50;100.00
72438;BME280;60444;43.534;-5.674;2023-04-26T03:40:38;101620.94;;;16.45;100.00
72438;BME280;60444;43.534;-5.674;2023-04-26T03:43:03;101646.09;;;16.51;100.00
72438;BME280;60444;43.534;-5.674;2023-04-26T03:45:29;101642.47;;;16.51;100.00
72438;BME280;60444;43.534;-5.674;2023-04-26T03:47:54;101620.25;;;16.41;100.00
72438;BME280;60444;43.534;-5.674;2023-04-26T03:50:21;101620.34;;;16.40;100.00
72438;BME280;60444;43.534;-5.674;2023-04-26T03:52:47;101636.03;;;16.52;100.00
72438;BME280;60444;43.534;-5.674;2023-04-26T03:55:12;101604.06;;;16.38;100.00
72438;BME280;60444;43.534;-5.674;2023-04-26T03:57:38;101608.47;;;16.41;100.00
72438;BME280;60444;43.534;-5.674;2023-04-26T04:00:04;101622.19;;;16.55;100.00
72438;BME280;60444;43.534;-5.674;2023-04-26T04:02:38;101629.50;;;16.54;100.00
72438;BME280;60444;43.534;-5.674;2023-04-26T04:05:03;101612.53;;;16.49;100.00
72438;BME280;60444;43.534;-5.674;2023-04-26T04:07:29;101595.50;;;16.44;100.00
72438;BME280;60444;43.534;-5.674;2023-04-26T04:09:58;101611.38;;;16.53;100.00
72438;BME280;60444;43.534;-5.674;2023-04-26T04:12:24;101623.69;;;16.61;100.00
72438;BME280;60444;43.534;-5.674;2023-04-26T04:14:49;101627.28;;;16.61;100.00
72438;BME280;60444;43.534;-5.674;2023-04-26T04:17:15;101618.22;;;16.61;100.00
72438;BME280;60444;43.534;-5.674;2023-04-26T04:19:41;101620.06;;;16.60;100.00
72438;BME280;60444;43.534;-5.674;2023-04-26T04:22:06;101623.69;;;16.61;100.00
72438;BME280;60444;43.534;-5.674;2023-04-26T04:24:31;101608.72;;;16.52;100.00
72438;BME280;60444;43.534;-5.674;2023-04-26T04:26:57;101619.97;;;16.62;100.00
72438;BME280;60444;43.534;-5.674;2023-04-26T04:29:25;101620.94;;;16.61;100.00
72438;BME280;60444;43.534;-5.674;2023-04-26T04:31:51;101621.00;;;16.59;100.00
72438;BME280;60444;43.534;-5.674;2023-04-26T04:34:17;101606.59;;;16.57;100.00
72438;BME280;60444;43.534;-5.674;2023-04-26T04:36:43;101593.41;;;16.49;100.00
72438;BME280;60444;43.534;-5.674;2023-04-26T04:39:08;101584.31;;;16.49;100.00
72438;BME280;60444;43.534;-5.674;2023-04-26T04:41:38;101607.88;;;16.66;100.00
72438;BME280;60444;43.534;-5.674;2023-04-26T04:44:05;101594.59;;;16.59;100.00
72438;BME280;60444;43.534;-5.674;2023-04-26T04:46:30;101597.84;;;16.66;100.00
72438;BME280;60444;43.534;-5.674;2023-04-26T04:48:55;101584.81;;;16.55;100.00
72438;BME280;60444;43.534;-5.674;2023-04-26T04:51:21;101589.91;;;16.62;100.00
72438;BME280;60444;43.534;-5.674;2023-04-26T04:53:47;101587.53;;;16.55;100.00
72438;BME280;60444;43.534;-5.674;2023-04-26T04:56:12;101566.78;;;16.53;100.00
72438;BME280;60444;43.534;-5.674;2023-04-26T04:58:38;101598.91;;;16.64;100.00
72438;BME280;60444;43.534;-5.674;2023-04-26T05:01:04;101581.22;;;16.55;100.00
72438;BME280;60444;43.534;-5.674;2023-04-26T05:03:30;101584.66;;;16.58;100.00
72438;BME280;60444;43.534;-5.674;2023-04-26T05:05:56;101581.31;;;16.53;100.00
72438;BME280;60444;43.534;-5.674;2023-04-26T05:08:21;101594.78;;;16.56;100.00
72438;BME280;60444;43.534;-5.674;2023-04-26T05:10:47;101614.31;;;16.65;100.00
72438;BME280;60444;43.534;-5.674;2023-04-26T05:13:12;101609.53;;;16.68;100.00
72438;BME280;60444;43.534;-5.674;2023-04-26T05:15:38;101580.13;;;16.57;100.00
72438;BME280;60444;43.534;-5.674;2023-04-26T05:18:03;101578.75;;;16.50;100.00
72438;BME280;60444;43.534;-5.674;2023-04-26T05:20:29;101604.94;;;16.69;100.00
72438;BME280;60444;43.534;-5.674;2023-04-26T05:22:55;101588.34;;;16.57;100.00
72438;BME280;60444;43.534;-5.674;2023-04-26T05:25:20;101581.03;;;16.58;100.00
72438;BME280;60444;43.534;-5.674;2023-04-26T05:27:46;101588.97;;;16.63;100.00
72438;BME280;60444;43.534;-5.674;2023-04-26T05:30:12;101588.06;;;16.62;100.00
72438;BME280;60444;43.534;-5.674;2023-04-26T05:32:38;101615.72;;;16.72;100.00
72438;BME280;60444;43.534;-5.674;2023-04-26T05:35:03;101615.72;;;16.72;100.00
72438;BME280;60444;43.534;-5.674;2023-04-26T05:37:29;101601.81;;;16.61;100.00
72438;BME280;60444;43.534;-5.674;2023-04-26T05:39:55;101604.47;;;16.62;100.00
72438;BME280;60444;43.534;-5.674;2023-04-26T05:42:21;101599.09;;;16.61;100.00
72438;BME280;60444;43.534;-5.674;2023-04-26T05:44:46;101604.94;;;16.69;100.00
72438;BME280;60444;43.534;-5.674;2023-04-26T05:47:12;101600.63;;;16.65;100.00
72438;BME280;60444;43.534;-5.674;2023-04-26T05:49:37;101592.63;;;16.62;100.00
72438;BME280;60444;43.534;-5.674;2023-04-26T05:52:03;101612.97;;;16.72;100.00
72438;BME280;60444;43.534;-5.674;2023-04-26T05:54:29;101618.34;;;16.73;100.00
72438;BME280;60444;43.534;-5.674;2023-04-26T05:56:54;101584.66;;;16.58;100.00
72438;BME280;60444;43.534;-5.674;2023-04-26T05:59:20;101620.09;;;16.74;100.00
72438;BME280;60444;43.534;-5.674;2023-04-26T06:01:45;101605.75;;;16.71;100.00
72438;BME280;60444;43.534;-5.674;2023-04-26T06:04:11;101588.84;;;16.64;100.00
72438;BME280;60444;43.534;-5.674;2023-04-26T06:06:36;101606.94;;;16.81;100.00
72438;BME280;60444;43.534;-5.674;2023-04-26T06:09:02;101597.63;;;16.69;100.00
72438;BME280;60444;43.534;-5.674;2023-04-26T06:11:28;101612.56;;;16.78;100.00
72438;BME280;60444;43.534;-5.674;2023-04-26T06:13:54;101600.06;;;16.74;100.00
72438;BME280;60444;43.534;-5.674;2023-04-26T06:16:21;101594.53;;;16.75;100.00
72438;BME280;60444;43.534;-5.674;2023-04-26T06:18:46;101584.47;;;16.76;100.00
72438;BME280;60444;43.534;-5.674;2023-04-26T06:21:12;101581.63;;;16.77;100.00
72438;BME280;60444;43.534;-5.674;2023-04-26T06:23:37;101601.19;;;16.85;100.00
72438;BME280;60444;43.534;-5.674;2023-04-26T06:26:03;101576.28;;;16.76;100.00
72438;BME280;60444;43.534;-5.674;2023-04-26T06:28:28;101579.69;;;16.79;100.00
72438;BME280;60444;43.534;-5.674;2023-04-26T06:30:54;101592.78;;;16.88;100.00
72438;BME280;60444;43.534;-5.674;2023-04-26T06:33:19;101589.19;;;16.88;100.00
72438;BME280;60444;43.534;-5.674;2023-04-26T06:35:45;101585.66;;;16.86;100.00
72438;BME280;60444;43.534;-5.674;2023-04-26T06:38:11;101599.72;;;16.94;100.00
72438;BME280;60444;43.534;-5.674;2023-04-26T06:40:37;101583.91;;;16.85;100.00
72438;BME280;60444;43.534;-5.674;2023-04-26T06:43:02;101582.16;;;16.84;100.00
72438;BME280;60444;43.534;-5.674;2023-04-26T06:45:28;101597.78;;;16.96;100.00
72438;BME280;60444;43.534;-5.674;2023-04-26T06:47:54;101585.47;;;16.89;100.00
72438;BME280;60444;43.534;-5.674;2023-04-26T06:50:19;101597.56;;;16.99;100.00
72438;BME280;60444;43.534;-5.674;2023-04-26T06:52:45;101584.50;;;16.90;100.00
72438;BME280;60444;43.534;-5.674;2023-04-26T06:55:10;101583.03;;;16.84;100.00
72438;BME280;60444;43.534;-5.674;2023-04-26T06:57:36;101588.41;;;17.00;100.00
72438;BME280;60444;43.534;-5.674;2023-04-26T07:00:02;101595.44;;;17.04;100.00
72438;BME280;60444;43.534;-5.674;2023-04-26T07:02:28;101575.53;;;16.88;100.00
72438;BME280;60444;43.534;-5.674;2023-04-26T07:04:54;101567.91;;;16.93;100.00
72438;BME280;60444;43.534;-5.674;2023-04-26T07:07:21;101588.59;;;17.11;100.00
72438;BME280;60444;43.534;-5.674;2023-04-26T07:09:47;101578.84;;;17.07;100.00
72438;BME280;60444;43.534;-5.674;2023-04-26T07:12:13;101591.94;;;17.16;100.00
72438;BME280;60444;43.534;-5.674;2023-04-26T07:14:39;101596.50;;;17.15;100.00
72438;BME280;60444;43.534;-5.674;2023-04-26T07:17:09;101561.53;;;17.06;100.00
72438;BME280;60444;43.534;-5.674;2023-04-26T07:19:35;101571.41;;;17.23;100.00
72438;BME280;60444;43.534;-5.674;2023-04-26T07:22:01;101582.53;;;17.34;100.00
72438;BME280;60444;43.534;-5.674;2023-04-26T07:24:26;101579.91;;;17.32;100.00
72438;BME280;60444;43.534;-5.674;2023-04-26T07:26:52;101579.53;;;17.38;100.00
72438;BME280;60444;43.534;-5.674;2023-04-26T07:29:18;101556.47;;;17.28;100.00
72438;BME280;60444;43.534;-5.674;2023-04-26T07:31:44;101557.44;;;17.41;100.00
72438;BME280;60444;43.534;-5.674;2023-04-26T07:34:10;101563.91;;;17.54;100.00
72438;BME280;60444;43.534;-5.674;2023-04-26T07:36:35;101548.66;;;17.50;100.00
72438;BME280;60444;43.534;-5.674;2023-04-26T07:39:01;101559.66;;;17.63;100.00
72438;BME280;60444;43.534;-5.674;2023-04-26T07:41:29;101552.13;;;17.67;100.00
72438;BME280;60444;43.534;-5.674;2023-04-26T07:43:54;101555.91;;;17.78;100.00
72438;BME280;60444;43.534;-5.674;2023-04-26T07:46:20;101551.00;;;17.83;100.00
72438;BME280;60444;43.534;-5.674;2023-04-26T07:48:45;101548.94;;;17.87;100.00
72438;BME280;60444;43.534;-5.674;2023-04-26T07:51:11;101566.31;;;18.00;100.00
72438;BME280;60444;43.534;-5.674;2023-04-26T07:53:38;101565.88;;;18.06;100.00
72438;BME280;60444;43.534;-5.674;2023-04-26T07:56:05;101553.94;;;18.07;100.00
72438;BME280;60444;43.534;-5.674;2023-04-26T07:58:37;101562.88;;;18.23;100.00
72438;BME280;60444;43.534;-5.674;2023-04-26T08:01:06;101576.22;;;18.27;100.00
72438;BME280;60444;43.534;-5.674;2023-04-26T08:03:33;101554.66;;;18.23;100.00
72438;BME280;60444;43.534;-5.674;2023-04-26T08:05:58;101545.25;;;18.27;100.00
72438;BME280;60444;43.534;-5.674;2023-04-26T08:08:25;101550.16;;;18.34;100.00
72438;BME280;60444;43.534;-5.674;2023-04-26T08:10:51;101568.22;;;18.51;100.00
72438;BME280;60444;43.534;-5.674;2023-04-26T08:13:17;101562.72;;;18.51;100.00
72438;BME280;60444;43.534;-5.674;2023-04-26T08:15:42;101575.56;;;18.63;100.00
72438;BME280;60444;43.534;-5.674;2023-04-26T08:18:08;101567.16;;;18.66;100.00
72438;BME280;60444;43.534;-5.674;2023-04-26T08:20:33;101563.88;;;18.74;100.00
72438;BME280;60444;43.534;-5.674;2023-04-26T08:22:59;101566.38;;;18.77;100.00
72438;BME280;60444;43.534;-5.674;2023-04-26T08:25:25;101565.72;;;18.86;100.00
72438;BME280;60444;43.534;-5.674;2023-04-26T08:27:50;101563.75;;;18.88;100.00
72438;BME280;60444;43.534;-5.674;2023-04-26T08:30:17;101556.06;;;18.93;100.00
72438;BME280;60444;43.534;-5.674;2023-04-26T08:32:43;101561.25;;;18.97;100.00
72438;BME280;60444;43.534;-5.674;2023-04-26T08:35:10;101544.34;;;18.91;100.00
72438;BME280;60444;43.534;-5.674;2023-04-26T08:37:35;101563.66;;;19.02;100.00
72438;BME280;60444;43.534;-5.674;2023-04-26T08:40:03;101564.53;;;19.02;100.00
72438;BME280;60444;43.534;-5.674;2023-04-26T08:42:30;101544.03;;;18.95;100.00
72438;BME280;60444;43.534;-5.674;2023-04-26T08:44:59;101557.72;;;19.08;100.00
72438;BME280;60444;43.534;-5.674;2023-04-26T08:50:00;101558.38;;;19.11;100.00
72438;BME280;60444;43.534;-5.674;2023-04-26T08:52:30;101553.09;;;19.08;100.00
72438;BME280;60444;43.534;-5.674;2023-04-26T08:54:57;101539.06;;;19.00;100.00
72438;BME280;60444;43.534;-5.674;2023-04-26T08:57:24;101541.47;;;19.05;100.00
72438;BME280;60444;43.534;-5.674;2023-04-26T08:59:50;101540.16;;;19.10;100.00
72438;BME280;60444;43.534;-5.674;2023-04-26T09:02:20;101560.56;;;19.19;100.00
72438;BME280;60444;43.534;-5.674;2023-04-26T09:04:46;101559.69;;;19.18;100.00
72438;BME280;60444;43.534;-5.674;2023-04-26T09:07:19;101556.81;;;19.20;100.00
72438;BME280;60444;43.534;-5.674;2023-04-26T09:09:49;101543.00;;;19.09;100.00
72438;BME280;60444;43.534;-5.674;2023-04-26T09:12:19;101566.06;;;19.19;100.00
72438;BME280;60444;43.534;-5.674;2023-04-26T09:14:46;101561.31;;;19.21;100.00
72438;BME280;60444;43.534;-5.674;2023-04-26T09:17:36;101545.09;;;19.18;100.00
72438;BME280;60444;43.534;-5.674;2023-04-26T09:22:43;101541.78;;;19.25;100.00
72438;BME280;60444;43.534;-5.674;2023-04-26T09:25:11;101547.94;;;19.29;100.00
72438;BME280;60444;43.534;-5.674;2023-04-26T09:27:41;101554.88;;;19.34;100.00
72438;BME280;60444;43.534;-5.674;2023-04-26T09:30:13;101553.66;;;19.38;100.00
72438;BME280;60444;43.534;-5.674;2023-04-26T09:32:53;101539.06;;;19.38;100.00
72438;BME280;60444;43.534;-5.674;2023-04-26T09:37:56;101542.00;;;19.47;100.00
72438;BME280;60444;43.534;-5.674;2023-04-26T09:40:24;101565.34;;;19.66;100.00
72438;BME280;60444;43.534;-5.674;2023-04-26T09:43:05;101562.03;;;19.73;100.00
72438;BME280;60444;43.534;-5.674;2023-04-26T09:45:32;101554.31;;;19.78;100.00
72438;BME280;60444;43.534;-5.674;2023-04-26T09:50:56;101545.91;;;19.92;100.00
72438;BME280;60444;43.534;-5.674;2023-04-26T09:53:27;101549.03;;;19.99;100.00
72438;BME280;60444;43.534;-5.674;2023-04-26T09:55:54;101552.72;;;20.10;100.00
72438;BME280;60444;43.534;-5.674;2023-04-26T09:58:20;101548.97;;;20.11;100.00
72438;BME280;60444;43.534;-5.674;2023-04-26T10:00:49;101511.34;;;20.01;100.00
72438;BME280;60444;43.534;-5.674;2023-04-26T10:03:17;101558.50;;;20.31;100.00
72438;BME280;60444;43.534;-5.674;2023-04-26T10:05:43;101556.28;;;20.47;100.00
72438;BME280;60444;43.534;-5.674;2023-04-26T10:08:10;101566.44;;;20.57;100.00
72438;BME280;60444;43.534;-5.674;2023-04-26T10:10:37;101556.69;;;20.53;100.00
72438;BME280;60444;43.534;-5.674;2023-04-26T10:13:04;101565.47;;;20.70;100.00
72438;BME280;60444;43.534;-5.674;2023-04-26T10:15:31;101564.22;;;20.74;100.00
72438;BME280;60444;43.534;-5.674;2023-04-26T10:17:56;101559.75;;;20.84;100.00
72438;BME280;60444;43.534;-5.674;2023-04-26T10:20:23;101556.63;;;20.88;100.00
72438;BME280;60444;43.534;-5.674;2023-04-26T10:22:56;101553.28;;;20.96;100.00
72438;BME280;60444;43.534;-5.674;2023-04-26T10:25:39;101557.31;;;21.03;100.00
72438;BME280;60444;43.534;-5.674;2023-04-26T10:28:05;101549.06;;;21.03;100.00
72438;BME280;60444;43.534;-5.674;2023-04-26T10:30:31;101561.69;;;21.16;100.00
72438;BME280;60444;43.534;-5.674;2023-04-26T10:35:23;101548.94;;;21.26;100.00
72438;BME280;60444;43.534;-5.674;2023-04-26T10:45:42;101556.81;;;21.64;100.00
72438;BME280;60444;43.534;-5.674;2023-04-26T10:56:55;101563.56;;;21.82;100.00
72438;BME280;60444;43.534;-5.674;2023-04-26T10:59:19;101542.13;;;21.75;100.00
72438;BME280;60444;43.534;-5.674;2023-04-26T11:01:45;101559.03;;;21.70;100.00
72438;BME280;60444;43.534;-5.674;2023-04-26T11:04:11;101565.19;;;21.62;100.00
72438;BME280;60444;43.534;-5.674;2023-04-26T11:06:53;101560.31;;;21.55;100.00
72438;BME280;60444;43.534;-5.674;2023-04-26T11:09:47;101558.94;;;21.49;100.00
72438;BME280;60444;43.534;-5.674;2023-04-26T11:12:14;101553.44;;;21.38;100.00
72438;BME280;60444;43.534;-5.674;2023-04-26T11:14:41;101539.19;;;21.22;100.00
72438;BME280;60444;43.534;-5.674;2023-04-26T11:17:10;101540.56;;;21.28;100.00
72438;BME280;60444;43.534;-5.674;2023-04-26T11:19:37;101542.56;;;21.26;100.00
72438;BME280;60444;43.534;-5.674;2023-04-26T11:22:05;101557.69;;;21.31;100.00
72438;BME280;60444;43.534;-5.674;2023-04-26T11:24:33;101566.84;;;21.32;100.00
72438;BME280;60444;43.534;-5.674;2023-04-26T11:27:07;101558.81;;;21.29;100.00
72438;BME280;60444;43.534;-5.674;2023-04-26T11:29:32;101564.22;;;21.19;100.00
72438;BME280;60444;43.534;-5.674;2023-04-26T11:31:58;101565.06;;;21.20;100.00
72438;BME280;60444;43.534;-5.674;2023-04-26T11:34:36;101569.19;;;21.25;100.00
72438;BME280;60444;43.534;-5.674;2023-04-26T11:37:05;101580.34;;;21.24;100.00
72438;BME280;60444;43.534;-5.674;2023-04-26T11:39:34;101571.19;;;21.23;100.00
72438;BME280;60444;43.534;-5.674;2023-04-26T11:42:04;101569.59;;;21.21;100.00
72438;BME280;60444;43.534;-5.674;2023-04-26T11:44:31;101554.44;;;21.15;100.00
72438;BME280;60444;43.534;-5.674;2023-04-26T11:47:00;101572.44;;;21.30;100.00
72438;BME280;60444;43.534;-5.674;2023-04-26T11:49:30;101569.34;;;21.35;100.00
72438;BME280;60444;43.534;-5.674;2023-04-26T11:51:57;101560.81;;;21.38;100.00
72438;BME280;60444;43.534;-5.674;2023-04-26T11:54:41;101552.06;;;21.44;100.00
72438;BME280;60444;43.534;-5.674;2023-04-26T11:57:17;101535.28;;;21.47;100.00
72438;BME280;60444;43.534;-5.674;2023-04-26T11:59:43;101559.28;;;21.67;100.00
72438;BME280;60444;43.534;-5.674;2023-04-26T12:02:10;101559.63;;;21.74;100.00
72438;BME280;60444;43.534;-5.674;2023-04-26T12:04:36;101547.50;;;21.76;100.00
72438;BME280;60444;43.534;-5.674;2023-04-26T12:07:03;101542.00;;;21.76;100.00
72438;BME280;60444;43.534;-5.674;2023-04-26T12:09:29;101539.66;;;21.72;100.00
72438;BME280;60444;43.534;-5.674;2023-04-26T12:11:59;101543.25;;;21.72;100.00
72438;BME280;60444;43.534;-5.674;2023-04-26T12:14:36;101536.91;;;21.49;100.00
72438;BME280;60444;43.534;-5.674;2023-04-26T12:17:03;101556.81;;;21.53;100.00
72438;BME280;60444;43.534;-5.674;2023-04-26T12:19:38;101563.19;;;21.53;100.00
72438;BME280;60444;43.534;-5.674;2023-04-26T12:22:05;101556.19;;;21.49;100.00
72438;BME280;60444;43.534;-5.674;2023-04-26T12:24:31;101558.44;;;21.55;100.00
72438;BME280;60444;43.534;-5.674;2023-04-26T12:27:02;101542.91;;;21.43;100.00
72438;BME280;60444;43.534;-5.674;2023-04-26T12:29:32;101555.44;;;21.58;100.00
72438;BME280;60444;43.534;-5.674;2023-04-26T12:31:58;101559.69;;;21.62;100.00
72438;BME280;60444;43.534;-5.674;2023-04-26T12:34:24;101547.53;;;21.54;100.00
72438;BME280;60444;43.534;-5.674;2023-04-26T12:36:50;101547.66;;;21.63;100.00
72438;BME280;60444;43.534;-5.674;2023-04-26T12:39:15;101559.63;;;21.74;100.00
72438;BME280;60444;43.534;-5.674;2023-04-26T12:41:42;101557.31;;;21.80;100.00
72438;BME280;60444;43.534;-5.674;2023-04-26T12:44:08;101558.03;;;21.93;100.00
72438;BME280;60444;43.534;-5.674;2023-04-26T12:46:35;101558.50;;;21.98;100.00
72438;BME280;60444;43.534;-5.674;2023-04-26T12:49:00;101554.09;;;22.07;100.00
72438;BME280;60444;43.534;-5.674;2023-04-26T12:51:27;101545.97;;;22.05;100.00
72438;BME280;60444;43.534;-5.674;2023-04-26T12:53:53;101562.88;;;22.32;100.00
72438;BME280;60444;43.534;-5.674;2023-04-26T12:56:18;101549.84;;;22.34;100.00
72438;BME280;60444;43.534;-5.674;2023-04-26T12:58:44;101561.50;;;22.38;100.00